Time;durP1;ratioP1;P1;durP2;ratioP2;P2;SDS_P1;SDS_P2;PMS_P1;PMS_P2;Temp;Humidity;BMP_temperature;BMP_pressure;BME280_temperature;BME280_humidity;BME280_pressure;Samples;Min_cycle;Max_cycle;Signal;HPM_P1;HPM_P2
2021/12/31 00:01:37;;;;;;;3.73;3.03;;;;;;;13.62;94.40;98792.50;4838208;29;20648;-86
2021/12/31 00:04:05;;;;;;;3.00;2.60;;;;;;;13.62;94.63;98785.50;4856009;29;20641;-85
2021/12/31 00:06:36;;;;;;;3.27;2.37;;;;;;;13.63;94.82;98783.69;4855093;29;21243;-86
2021/12/31 00:09:04;;;;;;;3.40;2.50;;;;;;;13.62;94.85;98787.25;4853579;29;20736;-86
2021/12/31 00:11:34;;;;;;;3.80;2.97;;;;;;;13.58;94.33;98785.81;4853361;29;20641;-86
2021/12/31 00:14:02;;;;;;;3.77;2.60;;;;;;;13.57;94.70;98784.13;4858172;29;21225;-86
2021/12/31 00:16:30;;;;;;;4.20;2.60;;;;;;;13.57;94.64;98779.69;4854418;29;21375;-85
2021/12/31 00:18:58;;;;;;;3.53;3.00;;;;;;;13.57;94.88;98790.19;4855192;29;20659;-86
2021/12/31 00:21:32;;;;;;;4.37;3.23;;;;;;;13.55;95.70;98788.63;4845606;29;20651;-86
2021/12/31 00:24:02;;;;;;;4.30;2.90;;;;;;;13.53;95.13;98788.75;4849284;29;20652;-86
2021/12/31 00:26:30;;;;;;;4.17;2.87;;;;;;;13.50;95.23;98791.56;4829363;29;20697;-86
2021/12/31 00:28:58;;;;;;;3.63;2.97;;;;;;;13.49;95.37;98782.03;4861756;29;20681;-86
2021/12/31 00:31:26;;;;;;;4.07;2.90;;;;;;;13.51;95.46;98789.78;4851798;29;21217;-86
2021/12/31 00:33:54;;;;;;;5.00;2.80;;;;;;;13.52;94.55;98787.06;4853920;29;20723;-86
2021/12/31 00:36:23;;;;;;;3.67;2.90;;;;;;;13.51;94.89;98784.53;4845863;29;20648;-86
2021/12/31 00:38:51;;;;;;;4.97;3.37;;;;;;;13.44;95.24;98799.00;4847292;29;20632;-86
2021/12/31 00:41:20;;;;;;;3.30;2.57;;;;;;;13.41;95.91;98792.19;4859483;29;20985;-86
2021/12/31 00:43:48;;;;;;;3.83;2.97;;;;;;;13.43;95.82;98792.09;4871859;29;20647;-86
2021/12/31 00:46:16;;;;;;;3.30;2.63;;;;;;;13.41;95.71;98807.06;4857858;29;20627;-86
2021/12/31 00:48:44;;;;;;;5.33;2.50;;;;;;;13.40;95.46;98797.53;4848856;29;20670;-85
2021/12/31 00:51:12;;;;;;;3.73;2.63;;;;;;;13.40;95.92;98802.78;4858269;29;20640;-86
2021/12/31 00:53:40;;;;;;;4.67;2.57;;;;;;;13.41;95.84;98804.44;4857045;29;20647;-86
2021/12/31 00:56:09;;;;;;;4.10;3.00;;;;;;;13.40;95.08;98808.03;4856775;29;20635;-86
2021/12/31 00:58:38;;;;;;;4.77;2.80;;;;;;;13.37;95.58;98806.44;4857398;29;20691;-86
2021/12/31 01:01:06;;;;;;;5.17;2.80;;;;;;;13.33;95.86;98817.22;4838028;29;20646;-86
2021/12/31 01:03:35;;;;;;;3.50;2.90;;;;;;;13.36;95.51;98815.22;4853537;29;20721;-86
2021/12/31 01:06:03;;;;;;;3.80;2.80;;;;;;;13.37;96.35;98819.53;4852164;29;20676;-86
2021/12/31 01:08:31;;;;;;;3.70;2.80;;;;;;;13.38;96.08;98813.38;4847134;29;20647;-86
2021/12/31 01:10:59;;;;;;;3.03;2.33;;;;;;;13.40;96.27;98811.47;4841319;29;20635;-86
2021/12/31 01:13:34;;;;;;;3.90;2.70;;;;;;;13.40;96.24;98813.28;4831599;29;20646;-86
2021/12/31 01:16:05;;;;;;;5.73;3.10;;;;;;;13.39;96.27;98808.97;4835938;29;20655;-86
2021/12/31 01:21:15;;;;;;;3.23;2.43;;;;;;;13.37;95.69;98818.72;4834102;29;20644;-86
2021/12/31 01:23:43;;;;;;;3.97;2.80;;;;;;;13.33;96.17;98817.22;4851922;29;20647;-86
2021/12/31 01:26:11;;;;;;;4.10;3.13;;;;;;;13.34;96.49;98821.53;4855039;29;21203;-86
2021/12/31 01:28:39;;;;;;;3.40;2.50;;;;;;;13.34;96.59;98818.91;4848041;29;21212;-86
2021/12/31 01:31:09;;;;;;;8.90;3.30;;;;;;;13.33;96.13;98825.09;4848101;29;20653;-86
2021/12/31 01:33:37;;;;;;;4.47;3.00;;;;;;;13.27;96.71;98821.09;4861508;29;20633;-85
2021/12/31 01:36:06;;;;;;;7.57;3.37;;;;;;;13.26;96.88;98816.81;4854318;29;20636;-86
2021/12/31 01:38:35;;;;;;;4.30;3.20;;;;;;;13.26;97.39;98821.19;4856259;29;20664;-86
2021/12/31 01:41:03;;;;;;;4.37;3.40;;;;;;;13.23;96.69;98811.78;4859213;29;21232;-86
2021/12/31 01:43:32;;;;;;;4.50;3.47;;;;;;;13.19;96.95;98809.47;4846351;29;21198;-86
2021/12/31 01:46:06;;;;;;;3.97;3.10;;;;;;;13.18;96.20;98810.41;4855238;29;20638;-85
2021/12/31 01:48:48;;;;;;;3.40;2.80;;;;;;;13.17;96.37;98806.13;4851869;29;20653;-86
2021/12/31 01:51:16;;;;;;;4.20;3.30;;;;;;;13.11;97.02;98809.16;4852707;29;20990;-86
2021/12/31 01:53:48;;;;;;;5.83;4.33;;;;;;;13.05;97.49;98817.41;4848489;29;20730;-86
2021/12/31 01:56:16;;;;;;;5.30;4.30;;;;;;;13.04;96.93;98820.16;4863710;29;20637;-86
2021/12/31 01:58:45;;;;;;;7.23;5.07;;;;;;;12.99;97.56;98809.97;4848694;29;20659;-86
2021/12/31 02:01:13;;;;;;;7.00;4.73;;;;;;;12.97;97.71;98811.84;4853858;29;21190;-85
2021/12/31 02:03:43;;;;;;;8.87;4.60;;;;;;;12.96;97.07;98815.41;4847376;29;20644;-86
2021/12/31 02:06:11;;;;;;;6.27;3.93;;;;;;;12.94;97.07;98812.03;4849870;29;20719;-86
2021/12/31 02:08:39;;;;;;;5.10;4.03;;;;;;;12.91;97.58;98817.47;4852779;29;20639;-86
2021/12/31 02:11:07;;;;;;;5.40;4.07;;;;;;;12.93;98.09;98807.75;4849065;29;20644;-86
2021/12/31 02:13:36;;;;;;;4.43;3.77;;;;;;;12.93;97.65;98809.50;4855460;29;21236;-86
2021/12/31 02:16:05;;;;;;;6.73;4.53;;;;;;;12.91;98.22;98809.63;4831564;29;21286;-86
2021/12/31 02:18:33;;;;;;;7.10;4.90;;;;;;;12.91;97.72;98814.84;4839342;29;20656;-86
2021/12/31 02:21:07;;;;;;;4.43;3.37;;;;;;;12.89;98.48;98808.88;4839714;29;20645;-86
2021/12/31 02:23:42;;;;;;;8.93;5.90;;;;;;;12.89;97.96;98805.44;4858086;29;20648;-86
2021/12/31 02:26:11;;;;;;;6.10;4.27;;;;;;;12.90;98.16;98801.88;4861327;29;21291;-86
2021/12/31 02:28:40;;;;;;;5.30;4.20;;;;;;;12.87;98.43;98807.31;4861887;29;20627;-86
2021/12/31 02:31:08;;;;;;;5.80;3.80;;;;;;;12.84;98.20;98800.50;4841862;29;20634;-86
2021/12/31 02:33:36;;;;;;;5.97;3.80;;;;;;;12.80;97.77;98804.22;4851730;29;20630;-85
2021/12/31 02:36:07;;;;;;;4.83;3.73;;;;;;;12.79;97.65;98807.81;4855642;29;20645;-85
2021/12/31 02:38:36;;;;;;;4.60;3.83;;;;;;;12.75;97.90;98795.84;4869657;29;21097;-85
2021/12/31 02:41:04;;;;;;;7.77;4.00;;;;;;;12.72;98.68;98787.38;4854237;29;20659;-85
2021/12/31 02:43:32;;;;;;;5.27;3.80;;;;;;;12.69;98.42;98795.41;4858317;29;20664;-85
2021/12/31 02:46:00;;;;;;;4.60;3.83;;;;;;;12.66;98.39;98797.38;4849567;29;21047;-86
2021/12/31 02:48:28;;;;;;;5.03;3.90;;;;;;;12.67;98.88;98788.59;4852475;29;20658;-86
2021/12/31 02:50:59;;;;;;;6.70;4.20;;;;;;;12.67;99.00;98786.81;4849872;29;20644;-86
2021/12/31 02:53:32;;;;;;;4.33;3.67;;;;;;;12.65;98.44;98791.31;4851435;29;20646;-86
2021/12/31 02:56:02;;;;;;;4.30;3.90;;;;;;;12.63;98.58;98793.19;4855959;29;20639;-86
2021/12/31 02:58:31;;;;;;;5.83;3.47;;;;;;;12.55;97.85;98789.38;4855521;29;20684;-85
2021/12/31 03:00:59;;;;;;;5.27;4.10;;;;;;;12.51;99.42;98794.00;4853936;29;20631;-86
2021/12/31 03:03:29;;;;;;;5.37;4.20;;;;;;;12.46;97.86;98789.97;4858797;29;20628;-86
2021/12/31 03:05:57;;;;;;;6.43;4.10;;;;;;;12.38;97.40;98787.03;4859485;29;20672;-86
2021/12/31 03:08:29;;;;;;;4.73;3.83;;;;;;;12.31;98.46;98783.13;4852953;29;21212;-86
2021/12/31 03:10:58;;;;;;;5.87;4.63;;;;;;;12.27;97.84;98773.81;4854779;29;20781;-86
2021/12/31 03:13:26;;;;;;;6.37;4.77;;;;;;;12.23;98.20;98771.50;4862540;29;20650;-86
2021/12/31 03:15:54;;;;;;;9.60;5.17;;;;;;;12.19;98.41;98777.84;4834863;29;20655;-85
2021/12/31 03:18:23;;;;;;;8.13;5.93;;;;;;;12.17;96.88;98772.72;4852775;29;20684;-86
2021/12/31 03:21:01;;;;;;;7.60;5.60;;;;;;;12.14;97.82;98772.06;4863589;29;20641;-85
2021/12/31 03:23:31;;;;;;;8.80;5.27;;;;;;;12.11;96.54;98773.09;4847516;29;20644;-85
2021/12/31 03:26:00;;;;;;;5.97;5.13;;;;;;;12.11;97.85;98787.97;4850671;29;20629;-86
2021/12/31 03:28:28;;;;;;;7.77;5.00;;;;;;;12.09;98.34;98788.06;4847402;29;21090;-86
2021/12/31 03:30:56;;;;;;;7.90;5.37;;;;;;;12.08;97.93;98786.38;4851372;29;20639;-85
2021/12/31 03:33:24;;;;;;;7.40;5.27;;;;;;;12.07;98.93;98792.56;4859434;29;20639;-86
2021/12/31 03:35:52;;;;;;;7.17;5.13;;;;;;;12.04;97.93;98794.50;4847807;29;21232;-86
2021/12/31 03:38:20;;;;;;;8.10;5.50;;;;;;;12.00;98.36;98791.25;4858074;29;21013;-85
2021/12/31 03:40:50;;;;;;;10.03;6.40;;;;;;;12.01;98.36;98792.94;4843035;29;21198;-86
2021/12/31 03:43:18;;;;;;;7.17;4.73;;;;;;;11.95;98.21;98788.09;4856731;29;21009;-86
2021/12/31 03:45:50;;;;;;;7.60;5.17;;;;;;;11.91;97.97;98789.22;4843229;29;20626;-86
2021/12/31 03:48:19;;;;;;;16.83;6.90;;;;;;;11.80;96.39;98791.66;4869091;29;20652;-86
2021/12/31 03:50:48;;;;;;;8.03;5.20;;;;;;;11.77;96.72;98794.47;4858282;29;20618;-85
2021/12/31 03:53:16;;;;;;;6.37;5.37;;;;;;;11.80;97.56;98788.19;4860185;29;20629;-86
2021/12/31 03:55:45;;;;;;;7.23;5.57;;;;;;;11.80;97.18;98793.41;4850742;29;20645;-86
2021/12/31 03:58:15;;;;;;;6.57;5.20;;;;;;;11.76;98.07;98787.53;4853334;29;20658;-85
2021/12/31 04:00:45;;;;;;;5.90;5.10;;;;;;;11.74;97.87;98783.34;4848365;29;20645;-85
2021/12/31 04:03:14;;;;;;;4.70;4.20;;;;;;;11.73;99.13;98791.25;4859778;29;20622;-86
2021/12/31 04:05:42;;;;;;;6.47;4.40;;;;;;;11.72;97.69;98784.38;4845830;29;20666;-85
2021/12/31 04:08:11;;;;;;;5.17;4.40;;;;;;;11.72;98.38;98787.81;4850897;29;20635;-85
2021/12/31 04:10:39;;;;;;;5.30;4.20;;;;;;;11.73;97.21;98797.34;4859223;29;20637;-85
2021/12/31 04:13:07;;;;;;;6.20;4.60;;;;;;;11.74;97.98;98792.94;4857945;29;21191;-85
2021/12/31 04:15:36;;;;;;;5.30;4.37;;;;;;;11.72;99.44;98794.84;4850809;29;21207;-86
2021/12/31 04:18:04;;;;;;;6.67;4.00;;;;;;;11.67;98.07;98786.44;4845156;29;21278;-85
2021/12/31 04:20:41;;;;;;;5.60;4.43;;;;;;;11.67;97.44;98783.84;4857683;29;20674;-86
2021/12/31 04:23:25;;;;;;;4.50;3.80;;;;;;;11.67;99.18;98786.44;4853814;29;21391;-86
2021/12/31 04:25:53;;;;;;;5.37;4.13;;;;;;;11.64;97.40;98781.41;4857921;29;20642;-86
2021/12/31 04:28:21;;;;;;;4.87;3.90;;;;;;;11.66;98.46;98774.31;4857253;29;20628;-85
2021/12/31 04:30:51;;;;;;;5.73;4.07;;;;;;;11.65;98.49;98783.06;4831916;29;20638;-85
2021/12/31 04:33:19;;;;;;;4.93;3.67;;;;;;;11.64;99.17;98778.78;4858959;29;20651;-86
2021/12/31 04:35:47;;;;;;;6.30;4.27;;;;;;;11.60;98.43;98772.91;4858357;29;21251;-85
2021/12/31 04:38:15;;;;;;;4.50;3.30;;;;;;;11.58;97.31;98766.09;4852399;29;20637;-85
2021/12/31 04:40:43;;;;;;;5.80;3.80;;;;;;;11.57;97.40;98774.88;4855551;29;21352;-86
2021/12/31 04:43:11;;;;;;;5.57;3.90;;;;;;;11.58;99.70;98779.16;4857739;29;20234;-86
2021/12/31 04:45:40;;;;;;;4.90;3.77;;;;;;;11.59;99.28;98783.44;4850083;29;21181;-86
2021/12/31 04:48:09;;;;;;;4.50;3.70;;;;;;;11.60;98.93;98777.28;4836107;29;20648;-85
2021/12/31 04:50:37;;;;;;;4.63;3.50;;;;;;;11.61;98.93;98786.81;4853432;29;20622;-85
2021/12/31 04:53:07;;;;;;;4.40;3.80;;;;;;;11.65;98.67;98788.28;4849873;29;21002;-86
2021/12/31 04:55:35;;;;;;;5.10;3.77;;;;;;;11.58;98.17;98780.00;4832687;29;21012;-86
2021/12/31 04:58:03;;;;;;;4.00;3.47;;;;;;;11.55;97.53;98776.75;4851554;29;21130;-85
2021/12/31 05:00:31;;;;;;;4.97;3.63;;;;;;;11.53;98.36;98781.19;4852349;29;20666;-85
2021/12/31 05:03:06;;;;;;;5.07;3.27;;;;;;;11.50;98.40;98774.41;4853125;29;20639;-85
2021/12/31 05:05:36;;;;;;;5.40;3.73;;;;;;;11.48;98.12;98773.66;4835051;29;20662;-85
2021/12/31 05:08:05;;;;;;;3.90;3.10;;;;;;;11.47;97.08;98768.50;4854798;29;21203;-85
2021/12/31 05:10:33;;;;;;;4.33;3.33;;;;;;;11.44;97.85;98768.66;4854261;29;20634;-85
2021/12/31 05:13:03;;;;;;;9.80;4.23;;;;;;;11.41;97.60;98767.09;4848002;29;21057;-86
2021/12/31 05:15:33;;;;;;;6.23;4.63;;;;;;;11.38;97.78;98774.25;4841820;29;20630;-86
2021/12/31 05:18:01;;;;;;;6.30;4.93;;;;;;;11.35;97.28;98771.84;4848471;29;21202;-85
2021/12/31 05:20:30;;;;;;;5.20;3.80;;;;;;;11.30;96.70;98779.94;4865980;29;20668;-85
2021/12/31 05:23:00;;;;;;;4.90;3.77;;;;;;;11.26;96.16;98776.78;4847505;29;20626;-86
2021/12/31 05:25:29;;;;;;;4.63;3.77;;;;;;;11.20;96.61;98780.63;4857889;29;21183;-86
2021/12/31 05:27:57;;;;;;;5.20;3.60;;;;;;;11.16;96.58;98784.34;4841758;29;20637;-85
2021/12/31 05:30:26;;;;;;;5.93;4.40;;;;;;;11.13;96.86;98783.69;4850740;29;21262;-85
2021/12/31 05:32:54;;;;;;;4.13;3.67;;;;;;;11.08;97.59;98778.72;4851342;29;20642;-86
2021/12/31 05:35:22;;;;;;;4.80;4.20;;;;;;;11.05;96.13;98783.28;4870345;29;20628;-85
2021/12/31 05:37:51;;;;;;;6.40;3.80;;;;;;;11.00;96.56;98778.31;4853697;29;21469;-86
2021/12/31 05:40:20;;;;;;;3.97;3.37;;;;;;;10.93;96.78;98769.19;4852186;29;20710;-85
2021/12/31 05:42:49;;;;;;;12.73;4.57;;;;;;;10.86;97.00;98765.25;4852983;29;20636;-86
2021/12/31 05:45:17;;;;;;;7.50;4.30;;;;;;;10.82;96.58;98761.16;4835442;29;20717;-85
2021/12/31 05:47:47;;;;;;;6.37;4.60;;;;;;;10.79;96.18;98760.47;4850249;29;20644;-85
2021/12/31 05:50:28;;;;;;;6.27;5.67;;;;;;;10.72;97.05;98760.94;4852832;29;20616;-85
2021/12/31 05:52:56;;;;;;;8.73;6.27;;;;;;;10.69;97.11;98758.50;4833553;29;20647;-86
2021/12/31 05:55:26;;;;;;;7.20;5.43;;;;;;;10.66;96.84;98758.69;4838487;29;20627;-85
2021/12/31 05:57:55;;;;;;;9.60;5.50;;;;;;;10.62;97.42;98760.63;4856042;29;20638;-85
2021/12/31 06:00:24;;;;;;;9.77;6.60;;;;;;;10.60;96.35;98759.88;4862204;29;20658;-86
2021/12/31 06:02:52;;;;;;;7.27;6.40;;;;;;;10.62;96.66;98765.03;4845940;29;21091;-86
2021/12/31 06:05:22;;;;;;;7.20;6.30;;;;;;;10.57;96.21;98760.06;4845511;29;20689;-85
2021/12/31 06:07:50;;;;;;;8.10;7.30;;;;;;;10.56;97.83;98760.16;4831858;29;21186;-85
2021/12/31 06:10:18;;;;;;;16.60;14.37;;;;;;;10.51;96.90;98754.38;4850066;29;20630;-86
2021/12/31 06:12:48;;;;;;;13.30;11.97;;;;;;;10.45;97.49;98746.91;4848404;29;20635;-85
2021/12/31 06:15:19;;;;;;;11.40;9.03;;;;;;;10.40;97.34;98748.91;4849247;29;20629;-85
2021/12/31 06:17:47;;;;;;;9.70;8.27;;;;;;;10.36;97.41;98755.25;4848589;29;21201;-85
2021/12/31 06:20:16;;;;;;;14.63;6.33;;;;;;;10.32;97.06;98752.91;4855786;29;20665;-85
2021/12/31 06:22:44;;;;;;;13.97;5.60;;;;;;;10.27;96.12;98758.38;4856208;29;20645;-85
2021/12/31 06:25:13;;;;;;;8.73;5.97;;;;;;;10.23;96.92;98759.47;4855389;29;21248;-85
2021/12/31 06:27:41;;;;;;;8.33;4.80;;;;;;;10.21;95.55;98758.72;4856915;29;20634;-86
2021/12/31 06:30:11;;;;;;;10.07;4.87;;;;;;;10.19;96.13;98764.94;4854543;29;20619;-86
2021/12/31 06:32:40;;;;;;;13.60;4.73;;;;;;;10.13;96.14;98766.13;4834942;29;20640;-85
2021/12/31 06:35:08;;;;;;;12.33;4.77;;;;;;;10.08;95.05;98767.31;4868773;29;20634;-85
2021/12/31 06:37:37;;;;;;;12.63;4.57;;;;;;;10.02;96.19;98765.88;4851590;29;20646;-85
2021/12/31 06:40:07;;;;;;;8.47;4.00;;;;;;;9.98;96.20;98764.38;4855980;29;20661;-86
2021/12/31 06:42:36;;;;;;;14.87;4.43;;;;;;;9.94;96.16;98762.84;4856396;29;20745;-85
2021/12/31 06:45:05;;;;;;;10.37;3.63;;;;;;;9.88;95.61;98765.75;4852392;29;20976;-86
2021/12/31 06:47:35;;;;;;;4.90;3.87;;;;;;;9.84;95.33;98770.38;4857131;29;20633;-85
2021/12/31 06:50:04;;;;;;;6.63;3.70;;;;;;;9.81;95.51;98765.34;4851081;29;21169;-85
2021/12/31 06:52:37;;;;;;;7.10;3.63;;;;;;;9.80;95.42;98771.47;4850264;29;20639;-86
2021/12/31 06:55:06;;;;;;;9.33;3.63;;;;;;;9.75;95.10;98774.31;4844086;29;20647;-85
2021/12/31 06:57:34;;;;;;;5.63;3.80;;;;;;;9.72;95.30;98773.66;4850928;29;20630;-86
2021/12/31 07:00:03;;;;;;;6.97;4.83;;;;;;;9.68;95.93;98775.59;4865532;29;20646;-86
2021/12/31 07:02:31;;;;;;;6.07;3.70;;;;;;;9.64;95.60;98781.03;4847445;29;20614;-85
2021/12/31 07:05:01;;;;;;;10.10;3.20;;;;;;;9.49;94.17;98767.06;4844948;29;21214;-85
2021/12/31 07:07:29;;;;;;;16.40;3.80;;;;;;;9.42;94.26;98776.09;4868416;29;20668;-85
2021/12/31 07:09:57;;;;;;;10.60;3.90;;;;;;;9.40;93.77;98777.13;4844770;29;20736;-86
2021/12/31 07:12:26;;;;;;;4.87;4.00;;;;;;;9.38;94.39;98777.22;4865746;29;20649;-85
2021/12/31 07:14:54;;;;;;;4.53;3.43;;;;;;;9.36;94.62;98786.00;4860386;29;20626;-85
2021/12/31 07:17:22;;;;;;;6.93;4.53;;;;;;;9.36;94.98;98796.44;4857947;29;20633;-85
2021/12/31 07:19:50;;;;;;;5.43;4.57;;;;;;;9.37;94.86;98792.06;4833589;29;20619;-85
2021/12/31 07:22:21;;;;;;;11.27;5.17;;;;;;;9.33;95.28;98791.38;4850315;29;21214;-85
2021/12/31 07:24:49;;;;;;;6.60;4.70;;;;;;;9.29;95.02;98791.63;4852944;29;20646;-85
2021/12/31 07:27:17;;;;;;;12.77;5.23;;;;;;;9.28;95.34;98787.34;4852377;29;20649;-85
2021/12/31 07:29:45;;;;;;;9.80;4.77;;;;;;;9.27;94.88;98783.88;4855283;29;20648;-85
2021/12/31 07:32:13;;;;;;;6.80;4.43;;;;;;;9.27;94.66;98790.88;4855804;29;21058;-85
2021/12/31 07:34:42;;;;;;;8.77;6.30;;;;;;;9.29;94.78;98787.28;4854020;29;20972;-85
2021/12/31 07:37:10;;;;;;;6.97;5.13;;;;;;;9.27;95.16;98786.50;4851377;29;20647;-85
2021/12/31 07:39:46;;;;;;;13.57;5.17;;;;;;;9.24;95.42;98781.44;4846337;29;20638;-85
2021/12/31 07:42:15;;;;;;;13.70;4.00;;;;;;;9.20;94.75;98789.50;4849132;29;20697;-85
2021/12/31 07:44:45;;;;;;;5.90;4.03;;;;;;;9.18;94.40;98786.13;4849540;29;20640;-85
2021/12/31 07:47:13;;;;;;;7.70;4.20;;;;;;;9.18;94.16;98792.16;4866160;29;20717;-85
2021/12/31 07:49:42;;;;;;;10.10;4.63;;;;;;;9.18;93.77;98788.75;4836538;29;20674;-85
2021/12/31 07:52:10;;;;;;;10.30;5.10;;;;;;;9.21;94.02;98794.63;4847978;29;20641;-85
2021/12/31 07:54:40;;;;;;;11.30;6.80;;;;;;;9.26;94.47;98790.03;4850925;29;20678;-86
2021/12/31 07:57:08;;;;;;;7.37;5.30;;;;;;;9.29;94.31;98787.28;4853022;29;21221;-85
2021/12/31 07:59:36;;;;;;;10.57;5.37;;;;;;;9.45;94.11;98790.75;4854417;29;21218;-85
2021/12/31 08:02:05;;;;;;;8.07;5.63;;;;;;;9.60;94.69;98784.72;4858883;29;21309;-85
2021/12/31 08:04:33;;;;;;;7.20;4.83;;;;;;;9.75;94.96;98778.69;4858806;29;20641;-85
2021/12/31 08:07:02;;;;;;;7.63;5.07;;;;;;;9.80;94.73;98790.53;4847765;29;20677;-86
2021/12/31 08:09:30;;;;;;;8.57;5.00;;;;;;;9.75;94.40;98796.94;4847803;29;20640;-85
2021/12/31 08:11:59;;;;;;;11.33;5.20;;;;;;;9.68;94.10;98798.16;4846279;29;21008;-85
2021/12/31 08:14:27;;;;;;;10.10;4.50;;;;;;;9.49;92.10;98800.09;4852891;29;20634;-85
2021/12/31 08:16:56;;;;;;;6.83;3.57;;;;;;;9.40;92.11;98803.16;4858101;29;20637;-85
2021/12/31 08:19:24;;;;;;;8.80;4.63;;;;;;;9.44;92.81;98804.66;4857548;29;20643;-85
2021/12/31 08:21:52;;;;;;;7.60;5.17;;;;;;;9.48;93.63;98795.78;4852231;29;20669;-85
2021/12/31 08:24:20;;;;;;;5.83;4.87;;;;;;;9.65;94.03;98798.31;4852956;29;20625;-85
2021/12/31 08:26:49;;;;;;;10.57;5.33;;;;;;;9.79;93.79;98806.25;4847296;29;20679;-85
2021/12/31 08:29:19;;;;;;;7.80;5.70;;;;;;;9.90;95.06;98800.38;4855360;29;21396;-85
2021/12/31 08:31:47;;;;;;;7.43;6.63;;;;;;;10.05;94.54;98807.38;4850519;29;20639;-85
2021/12/31 08:34:15;;;;;;;6.43;5.40;;;;;;;10.07;94.58;98809.91;4848815;29;20651;-85
2021/12/31 08:36:43;;;;;;;20.93;10.17;;;;;;;9.98;93.31;98807.81;4851774;29;21189;-85
2021/12/31 08:39:11;;;;;;;12.00;8.17;;;;;;;9.90;93.75;98796.94;4852348;29;20643;-85
2021/12/31 08:41:41;;;;;;;10.87;5.40;;;;;;;9.84;93.88;98798.09;4854200;29;20670;-85
2021/12/31 08:44:17;;;;;;;8.00;6.03;;;;;;;9.85;93.24;98797.19;4862827;29;21491;-85
2021/12/31 08:46:46;;;;;;;10.83;5.50;;;;;;;9.98;94.86;98798.25;4856544;29;20646;-85
2021/12/31 08:49:15;;;;;;;9.03;5.93;;;;;;;10.15;94.20;98795.53;4844529;29;20706;-86
2021/12/31 08:51:43;;;;;;;5.47;4.87;;;;;;;10.27;94.19;98794.88;4855843;29;20637;-85
2021/12/31 08:54:11;;;;;;;8.50;6.73;;;;;;;10.39;94.90;98800.22;4847946;29;20611;-85
2021/12/31 08:56:40;;;;;;;12.80;9.30;;;;;;;10.47;94.03;98808.44;4852213;29;20748;-85
2021/12/31 08:59:08;;;;;;;25.40;17.33;;;;;;;10.54;94.52;98795.88;4864386;29;20626;-85
2021/12/31 09:01:36;;;;;;;12.73;5.70;;;;;;;10.59;93.56;98792.09;4842797;29;20759;-85
2021/12/31 09:04:06;;;;;;;4.60;4.20;;;;;;;10.65;94.75;98788.31;4843309;29;21289;-85
2021/12/31 09:06:34;;;;;;;6.50;5.10;;;;;;;10.76;93.93;98789.38;4845901;29;20660;-85
2021/12/31 09:09:03;;;;;;;32.47;19.03;;;;;;;10.83;94.02;98796.75;4857540;29;20618;-85
2021/12/31 09:11:31;;;;;;;69.17;37.57;;;;;;;10.97;92.47;98794.16;4852484;29;21229;-85
2021/12/31 09:14:00;;;;;;;61.00;34.47;;;;;;;11.06;94.40;98787.56;4842527;29;20645;-85
2021/12/31 09:16:28;;;;;;;19.80;10.03;;;;;;;11.15;92.62;98790.47;4855276;29;20637;-86
2021/12/31 09:18:56;;;;;;;30.60;15.47;;;;;;;11.24;93.71;98797.75;4858521;29;20626;-85
2021/12/31 09:21:25;;;;;;;16.13;8.63;;;;;;;11.35;93.50;98797.94;4856805;29;20660;-85
2021/12/31 09:23:53;;;;;;;11.03;7.77;;;;;;;11.49;94.42;98784.97;4853018;29;20998;-85
2021/12/31 09:26:21;;;;;;;22.20;14.80;;;;;;;11.62;93.67;98785.88;4853884;29;20656;-85
2021/12/31 09:28:50;;;;;;;11.47;6.53;;;;;;;11.75;95.15;98793.69;4856146;29;20731;-85
2021/12/31 09:31:18;;;;;;;26.03;16.43;;;;;;;11.82;94.03;98791.56;4856153;29;20727;-85
2021/12/31 09:33:46;;;;;;;26.30;17.60;;;;;;;11.88;92.81;98791.19;4858577;29;20618;-85
2021/12/31 09:36:14;;;;;;;25.00;16.90;;;;;;;11.98;93.34;98777.44;4838667;29;21010;-85
2021/12/31 09:38:44;;;;;;;26.83;17.07;;;;;;;12.01;92.14;98782.47;4851479;29;21192;-85
2021/12/31 09:41:12;;;;;;;18.70;10.17;;;;;;;12.20;94.34;98792.59;4849136;29;20736;-85
2021/12/31 09:43:40;;;;;;;14.00;9.80;;;;;;;12.38;94.68;98789.66;4844825;29;20682;-86
2021/12/31 09:46:12;;;;;;;18.00;11.43;;;;;;;12.54;94.50;98798.16;4859501;29;20634;-85
2021/12/31 09:48:40;;;;;;;19.43;13.17;;;;;;;12.72;94.42;98792.59;4850064;29;20652;-86
2021/12/31 09:51:08;;;;;;;14.03;9.10;;;;;;;12.81;93.94;98786.75;4859394;29;20632;-86
2021/12/31 09:53:36;;;;;;;9.50;6.43;;;;;;;12.93;93.94;98792.06;4831502;29;20633;-86
2021/12/31 09:56:07;;;;;;;9.23;5.30;;;;;;;13.12;94.74;98794.28;4856470;29;20633;-85
2021/12/31 09:58:36;;;;;;;4.80;2.60;;;;;;;13.26;93.47;98797.63;4846473;29;20747;-86
2021/12/31 10:01:07;;;;;;;3.47;2.63;;;;;;;13.45;94.34;98796.28;4848038;29;20733;-85
2021/12/31 10:03:37;;;;;;;10.70;6.90;;;;;;;13.61;93.63;98796.06;4853953;29;21095;-86
2021/12/31 10:06:08;;;;;;;5.23;3.83;;;;;;;13.74;93.09;98795.09;4853929;29;20657;-85
2021/12/31 10:08:41;;;;;;;12.07;7.50;;;;;;;13.83;92.66;98797.06;4853954;29;20631;-86
2021/12/31 10:11:12;;;;;;;27.03;19.07;;;;;;;13.84;91.47;98807.47;4855821;29;21416;-86
2021/12/31 10:13:42;;;;;;;20.23;14.50;;;;;;;13.84;90.53;98798.75;4863642;29;21009;-85
2021/12/31 10:16:20;;;;;;;13.30;9.80;;;;;;;13.82;91.02;98796.25;4837971;29;20626;-86
2021/12/31 10:18:49;;;;;;;15.20;10.20;;;;;;;13.93;91.42;98791.09;4858586;29;20741;-86
2021/12/31 10:21:20;;;;;;;13.30;9.97;;;;;;;14.05;90.40;98789.41;4861704;29;21134;-86
2021/12/31 10:23:48;;;;;;;12.10;8.67;;;;;;;14.17;91.56;98786.75;4857014;29;21310;-86
2021/12/31 10:26:18;;;;;;;7.90;5.30;;;;;;;14.27;91.17;98775.50;4843342;29;20641;-86
2021/12/31 10:28:54;;;;;;;3.20;2.50;;;;;;;14.35;89.94;98774.94;4850259;29;20632;-86
2021/12/31 10:31:28;;;;;;;4.90;2.13;;;;;;;14.40;89.87;98780.69;4846000;29;20639;-86
2021/12/31 10:33:56;;;;;;;4.90;2.77;;;;;;;14.46;88.52;98778.44;4849269;29;20665;-86
2021/12/31 10:36:35;;;;;;;4.67;2.20;;;;;;;14.54;89.55;98767.38;4844719;29;21022;-85
2021/12/31 10:39:18;;;;;;;4.77;2.80;;;;;;;14.59;89.86;98765.28;4847950;29;20670;-86
2021/12/31 10:41:52;;;;;;;6.83;1.93;;;;;;;14.61;88.35;98756.31;4850060;29;20645;-85
2021/12/31 10:44:20;;;;;;;3.10;1.80;;;;;;;14.64;87.45;98750.84;4861122;29;21235;-85
2021/12/31 10:47:08;;;;;;;2.87;2.03;;;;;;;14.67;87.63;98748.84;4846738;29;20638;-85
2021/12/31 10:50:15;;;;;;;2.40;1.60;;;;;;;14.74;88.32;98742.16;4830685;29;20636;-85
2021/12/31 10:52:55;;;;;;;2.20;1.60;;;;;;;14.76;86.71;98742.91;4855091;29;21111;-85
2021/12/31 10:55:27;;;;;;;4.50;1.80;;;;;;;14.78;87.69;98727.88;4851206;29;20621;-85
2021/12/31 10:57:58;;;;;;;3.13;1.63;;;;;;;14.77;86.84;98730.63;4840349;29;20638;-85
2021/12/31 11:00:30;;;;;;;2.43;1.80;;;;;;;14.75;88.06;98732.53;4861300;29;20645;-86
2021/12/31 11:02:59;;;;;;;2.70;1.90;;;;;;;14.73;85.86;98726.53;4833865;29;20680;-85
2021/12/31 11:05:27;;;;;;;2.10;1.40;;;;;;;14.69;86.79;98715.44;4853442;29;20674;-86
2021/12/31 11:08:01;;;;;;;2.17;1.50;;;;;;;14.67;86.09;98712.09;4840890;29;21205;-85
2021/12/31 11:10:36;;;;;;;3.60;1.73;;;;;;;14.70;88.00;98735.50;4850072;29;21302;-86
2021/12/31 11:13:11;;;;;;;2.47;1.60;;;;;;;14.77;86.30;98730.63;4854203;29;20641;-86
2021/12/31 11:15:41;;;;;;;3.33;1.93;;;;;;;14.81;87.17;98725.03;4850188;29;20666;-85
2021/12/31 11:18:11;;;;;;;2.40;1.73;;;;;;;14.84;86.15;98716.91;4855747;29;21149;-86
2021/12/31 11:20:41;;;;;;;2.80;1.90;;;;;;;14.89;88.11;98721.81;4856402;29;20644;-86
2021/12/31 11:23:09;;;;;;;3.23;2.10;;;;;;;14.88;86.11;98718.31;4858445;29;20697;-85
2021/12/31 11:25:52;;;;;;;5.27;1.97;;;;;;;14.96;87.13;98709.88;4855220;29;21165;-85
2021/12/31 11:28:27;;;;;;;2.77;1.87;;;;;;;14.98;86.18;98702.72;4866583;29;20722;-85
2021/12/31 11:30:56;;;;;;;2.93;1.80;;;;;;;14.94;87.00;98706.53;4846989;29;20665;-85
2021/12/31 11:33:30;;;;;;;4.10;1.90;;;;;;;14.95;87.06;98701.16;4840639;29;20646;-86
2021/12/31 11:36:01;;;;;;;3.00;2.07;;;;;;;14.98;86.46;98689.59;4847334;29;21195;-85
2021/12/31 11:38:47;;;;;;;2.77;1.60;;;;;;;15.03;85.73;98690.91;4844990;29;20659;-85
2021/12/31 11:41:20;;;;;;;2.87;1.80;;;;;;;15.06;86.41;98690.66;4830415;29;20639;-85
2021/12/31 11:44:07;;;;;;;3.70;2.17;;;;;;;15.10;86.95;98684.22;4861746;29;20673;-85
2021/12/31 11:46:37;;;;;;;3.20;2.10;;;;;;;15.13;87.42;98686.63;4845224;29;20634;-85